createdAt,value
2023-02-05T00:00:52.277Z,2.33
2023-02-05T00:03:38.341Z,2.95
2023-02-05T00:06:23.238Z,2.22
2023-02-05T00:09:08.341Z,2.72
2023-02-05T00:14:38.691Z,2.45
2023-02-05T00:17:23.321Z,2.67
2023-02-05T00:20:09.023Z,2.10
2023-02-05T00:22:53.729Z,2.83
2023-02-05T00:25:38.621Z,3.15
2023-02-05T00:28:23.496Z,3.30
2023-02-05T00:31:17.947Z,2.72
2023-02-05T00:34:03.797Z,2.80
2023-02-05T00:36:49.976Z,2.90
2023-02-05T00:39:34.960Z,2.83
2023-02-05T00:42:19.922Z,2.38
2023-02-05T00:45:07.016Z,2.90
2023-02-05T00:47:52.129Z,2.88
2023-02-05T00:53:23.832Z,2.25
2023-02-05T00:56:08.980Z,2.17
2023-02-05T00:58:54.057Z,2.42
2023-02-05T01:01:38.987Z,2.67
2023-02-05T01:04:23.685Z,2.50
2023-02-05T01:07:08.700Z,2.72
2023-02-05T01:09:53.644Z,3.22
2023-02-05T01:12:38.401Z,2.80
2023-02-05T01:15:23.607Z,2.65
2023-02-05T01:18:08.791Z,2.90
2023-02-05T01:20:53.596Z,2.40
2023-02-05T01:23:38.545Z,2.13
2023-02-05T01:26:23.528Z,2.60
2023-02-05T01:29:08.439Z,2.50
2023-02-05T01:31:54.172Z,2.85
2023-02-05T01:34:38.981Z,2.78
2023-02-05T01:37:24.570Z,2.53
2023-02-05T01:40:14.959Z,2.20
2023-02-05T01:42:59.437Z,2.15
2023-02-05T01:45:58.781Z,2.42
2023-02-05T01:48:48.622Z,3.28
2023-02-05T01:51:36.472Z,3.65
2023-02-05T01:54:24.138Z,2.22
2023-02-05T01:57:20.214Z,3.05
2023-02-05T02:00:06.802Z,2.97
2023-02-05T02:03:00.034Z,2.90
2023-02-05T02:05:44.930Z,2.92
2023-02-05T02:08:32.583Z,2.58
2023-02-05T02:11:21.579Z,2.72
2023-02-05T02:14:09.345Z,2.28
2023-02-05T02:16:55.359Z,2.40
2023-02-05T02:19:46.456Z,2.50
2023-02-05T02:22:55.749Z,2.58
2023-02-05T02:25:46.267Z,2.15
2023-02-05T02:28:58.428Z,3.35
2023-02-05T02:31:56.676Z,3.13
2023-02-05T02:34:49.039Z,3.30
2023-02-05T02:38:03.530Z,3.45
2023-02-05T02:40:53.322Z,2.50
2023-02-05T02:44:04.696Z,2.83
2023-02-05T02:46:58.432Z,3.17
2023-02-05T02:50:13.739Z,2.50
2023-02-05T02:53:08.113Z,2.75
2023-02-05T02:55:56.553Z,3.20
2023-02-05T02:58:46.595Z,2.55
2023-02-05T03:01:34.892Z,3.40
2023-02-05T03:04:55.762Z,3.40
2023-02-05T03:07:49.189Z,2.75
2023-02-05T03:10:43.987Z,3.13
2023-02-05T03:13:32.033Z,3.30
2023-02-05T03:16:20.329Z,2.88
2023-02-05T03:19:05.803Z,3.00
2023-02-05T03:21:55.821Z,3.40
2023-02-05T03:24:40.858Z,3.22
2023-02-05T03:27:25.898Z,2.90
2023-02-05T03:30:12.337Z,3.28
2023-02-05T03:33:36.141Z,3.40
2023-02-05T03:36:46.923Z,3.72
2023-02-05T03:39:57.820Z,3.53
2023-02-05T03:45:53.089Z,2.75
2023-02-05T03:49:05.954Z,3.17
2023-02-05T03:52:09.767Z,3.63
2023-02-05T03:55:13.607Z,3.42
2023-02-05T03:58:12.461Z,3.33
2023-02-05T04:00:58.446Z,3.15
2023-02-05T04:03:43.804Z,3.70
2023-02-05T04:06:29.475Z,3.88
2023-02-05T04:09:14.588Z,3.55
2023-02-05T04:11:59.464Z,3.97
2023-02-05T04:14:44.483Z,4.53
2023-02-05T04:17:30.270Z,3.63
2023-02-05T04:20:15.472Z,4.57
2023-02-05T04:23:00.392Z,4.00
2023-02-05T04:25:52.307Z,4.10
2023-02-05T04:28:36.878Z,4.10
2023-02-05T04:31:23.440Z,3.88
2023-02-05T04:34:07.817Z,4.00
2023-02-05T04:39:38.058Z,4.78
2023-02-05T04:42:23.108Z,4.35
2023-02-05T04:45:08.831Z,4.15
2023-02-05T04:47:53.477Z,4.88
2023-02-05T04:50:38.778Z,4.05
2023-02-05T04:53:23.583Z,4.85
2023-02-05T04:56:11.804Z,4.45
2023-02-05T04:58:56.798Z,4.53
2023-02-05T05:01:41.531Z,5.18
2023-02-05T05:04:26.198Z,4.50
2023-02-05T05:07:11.388Z,4.93
2023-02-05T05:09:55.989Z,5.45
2023-02-05T05:12:40.915Z,4.95
2023-02-05T05:15:25.857Z,4.47
2023-02-05T05:18:10.911Z,4.47
2023-02-05T05:23:40.779Z,4.70
2023-02-05T05:26:25.332Z,4.22
2023-02-05T05:29:11.819Z,4.63
2023-02-05T05:31:56.600Z,4.53
2023-02-05T05:34:41.586Z,4.50
2023-02-05T05:37:26.779Z,5.03
2023-02-05T05:40:30.365Z,4.80
2023-02-05T05:43:36.191Z,5.03
2023-02-05T05:46:24.122Z,4.68
2023-02-05T05:49:08.937Z,5.13
2023-02-05T05:51:54.081Z,5.97
2023-02-05T05:54:39.030Z,5.32
2023-02-05T05:57:23.883Z,4.75
2023-02-05T06:00:09.685Z,6.10
2023-02-05T06:02:57.349Z,6.22
2023-02-05T06:05:42.931Z,6.20
2023-02-05T06:08:27.924Z,6.10
2023-02-05T06:13:57.488Z,5.00
2023-02-05T06:19:27.150Z,5.10
2023-02-05T06:22:12.355Z,6.07
2023-02-05T06:27:42.101Z,4.78
2023-02-05T06:30:27.233Z,5.38
2023-02-05T06:33:12.346Z,4.70
2023-02-05T06:35:56.928Z,5.55
2023-02-05T06:38:41.834Z,5.63
2023-02-05T06:41:26.450Z,5.75
2023-02-05T06:44:11.380Z,5.82
2023-02-05T06:46:56.494Z,5.65
2023-02-05T06:52:26.085Z,4.45
2023-02-05T06:55:11.128Z,6.03
2023-02-05T06:57:56.032Z,5.68
2023-02-05T07:03:26.159Z,4.30
2023-02-05T07:06:11.536Z,5.25
2023-02-05T07:11:40.850Z,4.53
2023-02-05T07:14:25.995Z,5.97
2023-02-05T07:17:10.596Z,5.38
2023-02-05T07:19:55.560Z,5.90
2023-02-05T07:22:41.295Z,5.38
2023-02-05T07:25:26.034Z,6.35
2023-02-05T07:30:55.925Z,6.25
2023-02-05T07:33:41.877Z,5.53
2023-02-05T07:36:26.567Z,5.60
2023-02-05T07:41:56.143Z,5.10
2023-02-05T07:44:49.507Z,4.93
2023-02-05T07:47:34.770Z,5.78
2023-02-05T07:50:19.578Z,5.72
2023-02-05T07:53:04.494Z,6.40
2023-02-05T07:58:34.652Z,4.82
2023-02-05T08:01:19.322Z,5.50
2023-02-05T08:04:04.500Z,4.45
2023-02-05T08:06:49.185Z,4.97
2023-02-05T08:09:35.957Z,5.43
2023-02-05T08:12:20.455Z,5.28
2023-02-05T08:17:50.625Z,5.40
2023-02-05T08:23:21.040Z,4.13
2023-02-05T08:26:05.858Z,5.63
2023-02-05T08:28:50.722Z,5.22
2023-02-05T08:31:35.935Z,5.90
2023-02-05T08:37:05.686Z,5.10
2023-02-05T08:42:35.881Z,5.05
2023-02-05T08:45:20.626Z,5.00
2023-02-05T08:48:05.605Z,4.10
2023-02-05T08:53:35.128Z,4.93
2023-02-05T08:56:20.423Z,5.25
2023-02-05T08:59:06.338Z,4.57
2023-02-05T09:01:51.162Z,4.75
2023-02-05T09:07:21.372Z,5.05
2023-02-05T09:10:11.566Z,5.30
2023-02-05T09:12:56.213Z,4.70
2023-02-05T09:15:48.505Z,5.30
2023-02-05T09:18:33.608Z,4.28
2023-02-05T09:21:18.314Z,5.20
2023-02-05T09:24:03.489Z,5.68
2023-02-05T09:26:48.145Z,5.45
2023-02-05T09:32:17.973Z,4.65
2023-02-05T09:35:02.534Z,5.25
2023-02-05T09:37:47.873Z,4.80
2023-02-05T09:40:39.422Z,5.97
2023-02-05T09:43:24.099Z,5.32
2023-02-05T09:46:16.717Z,5.32
2023-02-05T09:49:21.359Z,5.88
2023-02-05T09:52:26.546Z,5.70
2023-02-05T09:55:35.433Z,6.15
2023-02-05T09:58:25.967Z,5.85
2023-02-05T10:01:20.803Z,5.28
2023-02-05T10:04:07.170Z,5.18
2023-02-05T10:07:17.273Z,5.32
2023-02-05T10:13:04.493Z,4.90
2023-02-05T10:16:14.552Z,5.90
2023-02-05T10:18:59.523Z,5.95
2023-02-05T10:21:44.445Z,6.22
2023-02-05T10:24:56.060Z,5.90
2023-02-05T10:27:53.068Z,6.22
2023-02-05T10:30:47.624Z,4.95
2023-02-05T10:33:43.999Z,5.88
2023-02-05T10:36:28.939Z,5.90
2023-02-05T10:42:13.237Z,5.53
2023-02-05T10:45:42.523Z,4.95
2023-02-05T10:48:44.626Z,5.00
2023-02-05T10:51:41.229Z,5.57
2023-02-05T10:54:28.690Z,5.20
2023-02-05T10:57:16.781Z,5.40
2023-02-05T11:00:18.147Z,5.57
2023-02-05T11:03:05.037Z,5.75
2023-02-05T11:05:49.982Z,5.90
2023-02-05T11:11:28.121Z,5.75
2023-02-05T11:14:25.116Z,5.45
2023-02-05T11:17:21.663Z,4.80
2023-02-05T11:20:16.137Z,5.50
2023-02-05T11:23:22.318Z,5.30
2023-02-05T11:26:19.839Z,4.78
2023-02-05T11:29:20.054Z,5.95
2023-02-05T11:32:17.215Z,5.80
2023-02-05T11:35:16.589Z,5.00
2023-02-05T11:38:15.208Z,5.60
2023-02-05T11:41:02.766Z,4.93
2023-02-05T11:43:51.040Z,5.50
2023-02-05T11:46:43.601Z,5.30
2023-02-05T11:49:36.099Z,6.00
2023-02-05T11:52:36.178Z,5.47
2023-02-05T11:55:33.463Z,4.82
2023-02-05T11:58:31.502Z,5.28
2023-02-05T12:01:28.562Z,5.72
2023-02-05T12:04:19.572Z,5.78
2023-02-05T12:07:14.261Z,5.57
2023-02-05T12:10:00.379Z,4.95
2023-02-05T12:13:11.520Z,4.72
2023-02-05T12:16:17.124Z,4.53
2023-02-05T12:19:32.986Z,4.07
2023-02-05T12:22:55.947Z,5.13
2023-02-05T12:25:59.050Z,5.35
2023-02-05T12:29:02.013Z,5.60
2023-02-05T12:31:55.776Z,5.65
2023-02-05T12:35:08.292Z,4.85
2023-02-05T12:37:58.877Z,5.00
2023-02-05T12:41:11.664Z,4.90
2023-02-05T12:44:10.940Z,5.18
2023-02-05T12:47:37.019Z,3.95
2023-02-05T12:50:21.750Z,4.28
2023-02-05T12:53:14.814Z,5.07
2023-02-05T12:56:05.484Z,4.85
2023-02-05T12:59:11.410Z,4.72
2023-02-05T13:02:03.567Z,4.80
2023-02-05T13:04:59.299Z,4.82
2023-02-05T13:07:50.244Z,5.30
2023-02-05T13:10:58.212Z,4.70
2023-02-05T13:13:52.830Z,4.78
2023-02-05T13:16:45.859Z,4.78
2023-02-05T13:19:36.522Z,4.38
2023-02-05T13:22:54.794Z,5.18
2023-02-05T13:26:02.363Z,5.00
2023-02-05T13:29:02.885Z,5.05
2023-02-05T13:31:52.023Z,5.32
2023-02-05T13:34:39.706Z,5.63
2023-02-05T13:37:49.273Z,4.70
2023-02-05T13:40:57.180Z,5.43
2023-02-05T13:44:25.087Z,5.00
2023-02-05T13:47:28.302Z,4.13
2023-02-05T13:50:51.164Z,5.93
2023-02-05T13:53:44.290Z,4.88
2023-02-05T13:56:48.047Z,5.43
2023-02-05T13:59:39.679Z,4.43
2023-02-05T14:02:30.076Z,5.55
2023-02-05T14:05:26.707Z,4.13
2023-02-05T14:08:22.604Z,5.15
2023-02-05T14:11:08.582Z,5.35
2023-02-05T14:14:22.729Z,4.95
2023-02-05T14:17:32.713Z,4.85
2023-02-05T14:20:31.071Z,4.97
2023-02-05T14:23:47.676Z,5.13
2023-02-05T14:26:52.852Z,5.85
2023-02-05T14:29:48.791Z,5.30
2023-02-05T14:32:39.486Z,6.15
2023-02-05T14:35:39.776Z,5.68
2023-02-05T14:38:30.537Z,4.75
2023-02-05T14:41:19.421Z,5.40
2023-02-05T14:44:32.793Z,4.72
2023-02-05T14:47:27.568Z,5.28
2023-02-05T14:50:23.393Z,5.13
2023-02-05T14:53:26.060Z,4.75
2023-02-05T14:56:25.216Z,6.03
2023-02-05T14:59:29.200Z,4.68
2023-02-05T15:05:29.302Z,4.93
2023-02-05T15:08:21.736Z,5.20
2023-02-05T15:11:15.578Z,5.78
2023-02-05T15:14:32.558Z,5.43
2023-02-05T15:17:17.701Z,6.72
2023-02-05T15:20:11.872Z,5.85
2023-02-05T15:23:41.961Z,4.50
2023-02-05T15:26:38.589Z,6.35
2023-02-05T15:29:43.680Z,4.57
2023-02-05T15:32:35.438Z,6.40
2023-02-05T15:35:26.103Z,5.85
2023-02-05T15:38:28.607Z,5.22
2023-02-05T15:41:15.545Z,5.03
2023-02-05T15:44:02.332Z,5.43
2023-02-05T15:46:47.962Z,4.70
2023-02-05T15:49:40.041Z,5.60
2023-02-05T15:52:28.100Z,6.18
2023-02-05T15:55:20.298Z,6.22
2023-02-05T15:58:06.988Z,6.22
2023-02-05T16:00:53.465Z,6.28
2023-02-05T16:03:38.392Z,5.50
2023-02-05T16:06:25.335Z,5.60
2023-02-05T16:09:18.934Z,5.20
2023-02-05T16:12:12.220Z,5.82
2023-02-05T16:15:12.644Z,5.53
2023-02-05T16:17:59.174Z,5.55
2023-02-05T16:20:50.160Z,5.00
2023-02-05T16:23:43.794Z,5.93
2023-02-05T16:26:36.147Z,6.13
2023-02-05T16:29:48.519Z,5.53
2023-02-05T16:32:38.756Z,5.55
2023-02-05T16:35:38.466Z,5.43
2023-02-05T16:38:23.325Z,6.18
2023-02-05T16:44:47.943Z,5.00
2023-02-05T16:47:33.352Z,5.38
2023-02-05T16:50:42.439Z,6.07
2023-02-05T16:53:30.263Z,5.75
2023-02-05T16:56:30.703Z,6.38
2023-02-05T16:59:23.386Z,5.97
2023-02-05T17:02:23.282Z,6.03
2023-02-05T17:05:38.796Z,5.72
2023-02-05T17:08:30.122Z,5.72
2023-02-05T17:11:39.496Z,6.68
2023-02-05T17:14:35.137Z,6.03
2023-02-05T17:17:20.329Z,6.32
2023-02-05T17:20:18.804Z,6.47
2023-02-05T17:23:07.325Z,5.53
2023-02-05T17:25:56.996Z,5.43
2023-02-05T17:28:46.051Z,5.97
2023-02-05T17:31:35.344Z,6.22
2023-02-05T17:34:20.302Z,5.75
2023-02-05T17:37:05.341Z,5.45
2023-02-05T17:39:50.981Z,5.78
2023-02-05T17:45:24.107Z,5.68
2023-02-05T17:48:09.717Z,5.90
2023-02-05T17:50:58.561Z,6.22
2023-02-05T17:53:43.620Z,5.80
2023-02-05T17:56:28.283Z,6.03
2023-02-05T18:02:00.367Z,6.00
2023-02-05T18:04:45.417Z,7.30
2023-02-05T18:07:36.101Z,5.63
2023-02-05T18:13:08.066Z,5.50
2023-02-05T18:15:54.077Z,5.95
2023-02-05T18:18:39.029Z,5.25
2023-02-05T18:21:25.135Z,5.43
2023-02-05T18:24:10.140Z,5.35
2023-02-05T18:26:56.397Z,6.15
2023-02-05T18:29:43.546Z,5.90
2023-02-05T18:32:28.602Z,5.03
2023-02-05T18:35:13.981Z,5.35
2023-02-05T18:37:59.029Z,5.55
2023-02-05T18:40:43.606Z,5.22
2023-02-05T18:46:17.577Z,5.32
2023-02-05T18:49:02.797Z,5.43
2023-02-05T18:54:33.123Z,4.57
2023-02-05T19:00:03.567Z,5.18
2023-02-05T19:02:48.468Z,4.72
2023-02-05T19:05:34.439Z,5.85
2023-02-05T19:08:19.041Z,5.90
2023-02-05T19:11:12.885Z,6.15
2023-02-05T19:14:04.159Z,5.35
2023-02-05T19:16:49.647Z,4.82
2023-02-05T19:19:34.606Z,5.38
2023-02-05T19:25:04.124Z,5.65
2023-02-05T19:30:35.254Z,5.22
2023-02-05T19:33:19.851Z,5.00
2023-02-05T19:36:07.506Z,4.60
2023-02-05T19:38:53.258Z,5.45
2023-02-05T19:41:38.084Z,5.28
2023-02-05T19:44:23.215Z,4.78
2023-02-05T19:47:08.216Z,5.10
2023-02-05T19:52:38.058Z,5.38
2023-02-05T19:55:22.568Z,5.20
2023-02-05T19:58:08.004Z,5.20
2023-02-05T20:00:52.549Z,4.72
2023-02-05T20:03:37.645Z,5.22
2023-02-05T20:06:24.597Z,5.88
2023-02-05T20:09:10.283Z,5.60
2023-02-05T20:11:55.191Z,4.82
2023-02-05T20:14:40.206Z,5.32
2023-02-05T20:17:25.099Z,6.38
2023-02-05T20:20:22.209Z,5.90
2023-02-05T20:23:14.173Z,5.90
2023-02-05T20:26:03.300Z,6.28
2023-02-05T20:29:11.181Z,6.72
2023-02-05T20:31:57.667Z,5.50
2023-02-05T20:34:47.020Z,6.22
2023-02-05T20:37:36.165Z,5.72
2023-02-05T20:40:20.729Z,5.80
2023-02-05T20:43:08.593Z,5.85
2023-02-05T20:45:53.509Z,5.78
2023-02-05T20:48:38.107Z,5.70
2023-02-05T20:51:23.341Z,5.63
2023-02-05T20:54:08.922Z,5.55
2023-02-05T20:56:58.387Z,6.10
2023-02-05T20:59:43.070Z,5.85
2023-02-05T21:02:28.279Z,5.65
2023-02-05T21:05:13.058Z,5.38
2023-02-05T21:07:57.825Z,4.88
2023-02-05T21:10:42.661Z,5.50
2023-02-05T21:13:27.616Z,5.20
2023-02-05T21:16:16.166Z,5.65
2023-02-05T21:19:03.369Z,6.07
2023-02-05T21:21:49.579Z,4.90
2023-02-05T21:24:34.255Z,5.65
2023-02-05T21:30:07.977Z,5.00
2023-02-05T21:32:52.747Z,4.95
2023-02-05T21:38:23.453Z,5.55
2023-02-05T21:41:13.588Z,5.65
2023-02-05T21:43:59.774Z,4.25
2023-02-05T21:46:44.648Z,5.20
2023-02-05T21:52:14.884Z,4.50
2023-02-05T21:57:44.082Z,4.65
2023-02-05T22:00:29.057Z,4.95
2023-02-05T22:05:58.629Z,4.53
2023-02-05T22:08:46.620Z,5.20
2023-02-05T22:11:32.384Z,5.10
2023-02-05T22:14:17.197Z,5.00
2023-02-05T22:17:02.571Z,5.32
2023-02-05T22:19:47.233Z,4.40
2023-02-05T22:22:34.891Z,4.80
2023-02-05T22:25:19.766Z,4.72
2023-02-05T22:28:04.950Z,4.43
2023-02-05T22:30:49.735Z,4.85
2023-02-05T22:33:36.875Z,5.47
2023-02-05T22:36:24.919Z,5.18
2023-02-05T22:39:09.954Z,4.78
2023-02-05T22:44:39.312Z,4.45
2023-02-05T22:47:24.240Z,5.00
2023-02-05T22:50:09.159Z,4.60
2023-02-05T22:52:53.868Z,4.78
2023-02-05T22:55:39.799Z,4.57
2023-02-05T22:58:24.730Z,5.00
2023-02-05T23:01:14.735Z,5.05
2023-02-05T23:04:01.284Z,5.05
2023-02-05T23:06:46.419Z,4.97
2023-02-05T23:09:33.084Z,4.40
2023-02-05T23:12:19.083Z,5.25
2023-02-05T23:17:49.278Z,3.50
2023-02-05T23:23:18.639Z,3.42
2023-02-05T23:26:21.533Z,4.03
2023-02-05T23:29:06.635Z,4.20
2023-02-05T23:31:51.209Z,4.95
2023-02-05T23:34:36.117Z,4.38
2023-02-05T23:37:21.118Z,5.20
2023-02-05T23:40:06.217Z,4.40
2023-02-05T23:42:51.704Z,4.97
2023-02-05T23:45:36.750Z,5.00
2023-02-05T23:48:21.855Z,4.38
2023-02-05T23:51:06.759Z,4.47
2023-02-05T23:56:36.764Z,4.25
2023-02-05T23:59:21.763Z,4.63
